sensor_id;sensor_type;location;lat;lon;timestamp;P1;durP1;ratioP1;P2;durP2;ratioP2
58756;SDS011;44527;47.460;19.016;2023-09-08T05:41:11;14.35;;;5.72;;
58756;SDS011;44527;47.460;19.016;2023-09-08T05:44:40;20.42;;;5.68;;
58756;SDS011;44527;47.460;19.016;2023-09-08T05:47:56;25.75;;;5.72;;
58756;SDS011;44527;47.460;19.016;2023-09-08T06:33:52;18.98;;;4.80;;
58756;SDS011;44527;47.460;19.016;2023-09-08T08:18:35;9.05;;;4.68;;
58756;SDS011;44527;47.460;19.016;2023-09-08T08:21:39;11.25;;;4.82;;
58756;SDS011;44527;47.460;19.016;2023-09-08T08:24:44;11.30;;;5.12;;
58756;SDS011;44527;47.460;19.016;2023-09-08T08:27:47;10.85;;;6.03;;
58756;SDS011;44527;47.460;19.016;2023-09-08T08:30:49;13.27;;;5.20;;
58756;SDS011;44527;47.460;19.016;2023-09-08T08:33:52;9.10;;;5.43;;
58756;SDS011;44527;47.460;19.016;2023-09-08T08:36:54;14.13;;;5.15;;
58756;SDS011;44527;47.460;19.016;2023-09-08T08:39:57;15.57;;;5.43;;
58756;SDS011;44527;47.460;19.016;2023-09-08T08:42:59;13.25;;;5.10;;
58756;SDS011;44527;47.460;19.016;2023-09-08T08:46:04;9.90;;;5.05;;
58756;SDS011;44527;47.460;19.016;2023-09-08T08:49:07;9.30;;;5.65;;
58756;SDS011;44527;47.460;19.016;2023-09-08T08:52:12;10.30;;;5.20;;
58756;SDS011;44527;47.460;19.016;2023-09-08T08:55:16;19.48;;;5.30;;
58756;SDS011;44527;47.460;19.016;2023-09-08T08:58:19;18.25;;;4.90;;
58756;SDS011;44527;47.460;19.016;2023-09-08T09:01:26;13.60;;;4.28;;
58756;SDS011;44527;47.460;19.016;2023-09-08T09:04:32;15.35;;;5.10;;
58756;SDS011;44527;47.460;19.016;2023-09-08T09:07:35;12.60;;;5.37;;
58756;SDS011;44527;47.460;19.016;2023-09-08T09:10:39;15.80;;;5.78;;
58756;SDS011;44527;47.460;19.016;2023-09-08T09:13:42;15.27;;;5.50;;
58756;SDS011;44527;47.460;19.016;2023-09-08T09:16:44;12.05;;;5.25;;
58756;SDS011;44527;47.460;19.016;2023-09-08T09:19:46;9.18;;;5.35;;
58756;SDS011;44527;47.460;19.016;2023-09-08T09:22:49;13.15;;;5.93;;
58756;SDS011;44527;47.460;19.016;2023-09-08T09:25:52;15.60;;;5.22;;
58756;SDS011;44527;47.460;19.016;2023-09-08T09:28:54;15.13;;;5.30;;
58756;SDS011;44527;47.460;19.016;2023-09-08T09:31:58;15.95;;;5.70;;
58756;SDS011;44527;47.460;19.016;2023-09-08T09:35:05;10.40;;;5.93;;
58756;SDS011;44527;47.460;19.016;2023-09-08T09:38:07;10.50;;;5.05;;
58756;SDS011;44527;47.460;19.016;2023-09-08T09:41:10;13.80;;;5.72;;
58756;SDS011;44527;47.460;19.016;2023-09-08T09:44:13;11.05;;;5.37;;
58756;SDS011;44527;47.460;19.016;2023-09-08T09:47:16;13.43;;;5.43;;
58756;SDS011;44527;47.460;19.016;2023-09-08T09:50:31;13.57;;;5.57;;
58756;SDS011;44527;47.460;19.016;2023-09-08T09:53:35;11.50;;;5.00;;
58756;SDS011;44527;47.460;19.016;2023-09-08T09:56:38;12.60;;;5.15;;
58756;SDS011;44527;47.460;19.016;2023-09-08T09:59:42;9.90;;;5.05;;
58756;SDS011;44527;47.460;19.016;2023-09-08T10:02:44;16.75;;;5.47;;
58756;SDS011;44527;47.460;19.016;2023-09-08T10:05:48;15.18;;;5.80;;
58756;SDS011;44527;47.460;19.016;2023-09-08T10:08:52;20.20;;;5.10;;
58756;SDS011;44527;47.460;19.016;2023-09-08T10:11:56;19.73;;;5.60;;
58756;SDS011;44527;47.460;19.016;2023-09-08T10:15:05;16.70;;;5.00;;
58756;SDS011;44527;47.460;19.016;2023-09-08T10:18:09;18.37;;;4.97;;
58756;SDS011;44527;47.460;19.016;2023-09-08T10:21:16;9.98;;;4.82;;
58756;SDS011;44527;47.460;19.016;2023-09-08T10:24:24;9.60;;;4.55;;
58756;SDS011;44527;47.460;19.016;2023-09-08T10:27:29;11.25;;;4.78;;
58756;SDS011;44527;47.460;19.016;2023-09-08T10:30:32;9.15;;;5.00;;
58756;SDS011;44527;47.460;19.016;2023-09-08T10:33:34;11.32;;;4.78;;
58756;SDS011;44527;47.460;19.016;2023-09-08T10:36:39;9.45;;;4.55;;
58756;SDS011;44527;47.460;19.016;2023-09-08T10:39:41;12.00;;;4.10;;
58756;SDS011;44527;47.460;19.016;2023-09-08T10:42:44;11.35;;;4.55;;
58756;SDS011;44527;47.460;19.016;2023-09-08T10:45:47;19.35;;;4.95;;
58756;SDS011;44527;47.460;19.016;2023-09-08T10:48:50;16.15;;;4.87;;
58756;SDS011;44527;47.460;19.016;2023-09-08T10:52:05;6.95;;;3.90;;
58756;SDS011;44527;47.460;19.016;2023-09-08T10:55:11;9.63;;;4.00;;
58756;SDS011;44527;47.460;19.016;2023-09-08T10:58:17;8.63;;;4.05;;
58756;SDS011;44527;47.460;19.016;2023-09-08T11:01:21;7.43;;;4.43;;
58756;SDS011;44527;47.460;19.016;2023-09-08T11:04:30;17.92;;;4.45;;
58756;SDS011;44527;47.460;19.016;2023-09-08T11:07:38;5.37;;;3.60;;
58756;SDS011;44527;47.460;19.016;2023-09-08T11:10:41;7.05;;;3.80;;
58756;SDS011;44527;47.460;19.016;2023-09-08T11:13:45;5.87;;;3.70;;
58756;SDS011;44527;47.460;19.016;2023-09-08T11:16:49;6.53;;;4.10;;
58756;SDS011;44527;47.460;19.016;2023-09-08T11:19:51;6.95;;;3.95;;
58756;SDS011;44527;47.460;19.016;2023-09-08T11:22:54;13.07;;;3.60;;
58756;SDS011;44527;47.460;19.016;2023-09-08T11:25:57;6.60;;;3.72;;
58756;SDS011;44527;47.460;19.016;2023-09-08T11:29:01;12.57;;;3.80;;
58756;SDS011;44527;47.460;19.016;2023-09-08T11:32:05;10.88;;;3.95;;
58756;SDS011;44527;47.460;19.016;2023-09-08T11:35:12;8.10;;;3.85;;
58756;SDS011;44527;47.460;19.016;2023-09-08T11:38:15;7.10;;;4.03;;
58756;SDS011;44527;47.460;19.016;2023-09-08T11:41:18;8.02;;;4.00;;
58756;SDS011;44527;47.460;19.016;2023-09-08T11:47:28;14.48;;;3.97;;
58756;SDS011;44527;47.460;19.016;2023-09-08T11:50:31;9.55;;;3.85;;
58756;SDS011;44527;47.460;19.016;2023-09-08T11:53:33;10.45;;;3.80;;
58756;SDS011;44527;47.460;19.016;2023-09-08T11:56:37;5.37;;;3.75;;
58756;SDS011;44527;47.460;19.016;2023-09-08T11:59:41;6.47;;;3.67;;
58756;SDS011;44527;47.460;19.016;2023-09-08T12:02:44;9.13;;;3.65;;
58756;SDS011;44527;47.460;19.016;2023-09-08T12:05:50;8.20;;;3.62;;
58756;SDS011;44527;47.460;19.016;2023-09-08T12:09:03;7.37;;;3.67;;
58756;SDS011;44527;47.460;19.016;2023-09-08T12:12:06;7.75;;;3.83;;
58756;SDS011;44527;47.460;19.016;2023-09-08T12:15:29;9.45;;;3.95;;
58756;SDS011;44527;47.460;19.016;2023-09-08T12:18:41;5.72;;;3.75;;
58756;SDS011;44527;47.460;19.016;2023-09-08T12:21:58;7.57;;;3.60;;
58756;SDS011;44527;47.460;19.016;2023-09-08T12:25:03;9.98;;;3.55;;
58756;SDS011;44527;47.460;19.016;2023-09-08T12:28:10;8.50;;;4.12;;
58756;SDS011;44527;47.460;19.016;2023-09-08T12:31:13;5.78;;;3.40;;
58756;SDS011;44527;47.460;19.016;2023-09-08T12:34:17;8.32;;;3.47;;
58756;SDS011;44527;47.460;19.016;2023-09-08T12:37:24;9.30;;;4.10;;
58756;SDS011;44527;47.460;19.016;2023-09-08T12:43:38;6.68;;;3.95;;
58756;SDS011;44527;47.460;19.016;2023-09-08T12:46:41;5.95;;;3.47;;
58756;SDS011;44527;47.460;19.016;2023-09-08T12:49:44;9.10;;;3.90;;
58756;SDS011;44527;47.460;19.016;2023-09-08T12:52:47;8.50;;;3.70;;
58756;SDS011;44527;47.460;19.016;2023-09-08T12:55:50;6.32;;;3.75;;
58756;SDS011;44527;47.460;19.016;2023-09-08T12:58:53;4.97;;;3.12;;
58756;SDS011;44527;47.460;19.016;2023-09-08T13:01:57;12.82;;;3.95;;
58756;SDS011;44527;47.460;19.016;2023-09-08T13:05:00;13.73;;;3.85;;
58756;SDS011;44527;47.460;19.016;2023-09-08T13:08:05;7.82;;;3.78;;
58756;SDS011;44527;47.460;19.016;2023-09-08T13:11:07;8.57;;;3.50;;
58756;SDS011;44527;47.460;19.016;2023-09-08T13:14:11;7.10;;;3.33;;
58756;SDS011;44527;47.460;19.016;2023-09-08T13:17:14;8.50;;;3.78;;
58756;SDS011;44527;47.460;19.016;2023-09-08T13:20:20;12.13;;;4.15;;
58756;SDS011;44527;47.460;19.016;2023-09-08T13:23:22;6.60;;;3.42;;
58756;SDS011;44527;47.460;19.016;2023-09-08T13:26:25;19.20;;;3.92;;
58756;SDS011;44527;47.460;19.016;2023-09-08T13:29:28;26.75;;;4.12;;
58756;SDS011;44527;47.460;19.016;2023-09-08T13:32:30;8.43;;;3.65;;
58756;SDS011;44527;47.460;19.016;2023-09-08T13:35:33;5.55;;;3.60;;
58756;SDS011;44527;47.460;19.016;2023-09-08T13:38:36;4.18;;;3.00;;
58756;SDS011;44527;47.460;19.016;2023-09-08T13:41:52;6.10;;;3.15;;
58756;SDS011;44527;47.460;19.016;2023-09-08T13:44:58;5.85;;;3.45;;
58756;SDS011;44527;47.460;19.016;2023-09-08T13:48:02;8.93;;;3.28;;
58756;SDS011;44527;47.460;19.016;2023-09-08T13:51:09;7.35;;;3.70;;
58756;SDS011;44527;47.460;19.016;2023-09-08T13:54:12;7.72;;;3.87;;
58756;SDS011;44527;47.460;19.016;2023-09-08T13:57:19;10.70;;;3.72;;
58756;SDS011;44527;47.460;19.016;2023-09-08T14:00:24;12.73;;;3.78;;
58756;SDS011;44527;47.460;19.016;2023-09-08T14:03:32;7.40;;;3.05;;
58756;SDS011;44527;47.460;19.016;2023-09-08T14:06:54;10.93;;;3.78;;
58756;SDS011;44527;47.460;19.016;2023-09-08T14:10:01;6.57;;;3.70;;
58756;SDS011;44527;47.460;19.016;2023-09-08T14:13:28;7.78;;;3.70;;
58756;SDS011;44527;47.460;19.016;2023-09-08T14:16:31;16.87;;;3.65;;
58756;SDS011;44527;47.460;19.016;2023-09-08T14:19:34;6.57;;;3.90;;
58756;SDS011;44527;47.460;19.016;2023-09-08T14:22:37;9.65;;;3.83;;
58756;SDS011;44527;47.460;19.016;2023-09-08T14:25:40;10.93;;;4.10;;
58756;SDS011;44527;47.460;19.016;2023-09-08T14:28:43;6.37;;;3.47;;
58756;SDS011;44527;47.460;19.016;2023-09-08T14:31:45;10.00;;;3.35;;
58756;SDS011;44527;47.460;19.016;2023-09-08T14:34:48;12.37;;;3.28;;
58756;SDS011;44527;47.460;19.016;2023-09-08T14:37:51;11.95;;;3.87;;
58756;SDS011;44527;47.460;19.016;2023-09-08T14:40:57;16.73;;;3.87;;
58756;SDS011;44527;47.460;19.016;2023-09-08T14:44:01;11.68;;;3.58;;
58756;SDS011;44527;47.460;19.016;2023-09-08T14:47:04;8.95;;;3.50;;
58756;SDS011;44527;47.460;19.016;2023-09-08T14:50:06;10.30;;;3.75;;
58756;SDS011;44527;47.460;19.016;2023-09-08T14:53:09;11.80;;;3.83;;
58756;SDS011;44527;47.460;19.016;2023-09-08T14:56:11;12.52;;;3.58;;
58756;SDS011;44527;47.460;19.016;2023-09-08T14:59:14;10.18;;;3.20;;
58756;SDS011;44527;47.460;19.016;2023-09-08T15:02:16;10.80;;;3.42;;
58756;SDS011;44527;47.460;19.016;2023-09-08T15:05:19;5.45;;;3.58;;
58756;SDS011;44527;47.460;19.016;2023-09-08T15:08:21;10.43;;;3.58;;
58756;SDS011;44527;47.460;19.016;2023-09-08T15:11:24;7.20;;;4.00;;
58756;SDS011;44527;47.460;19.016;2023-09-08T15:14:26;10.75;;;3.67;;
58756;SDS011;44527;47.460;19.016;2023-09-08T15:17:29;7.05;;;4.22;;
58756;SDS011;44527;47.460;19.016;2023-09-08T15:20:32;9.45;;;3.37;;
58756;SDS011;44527;47.460;19.016;2023-09-08T15:23:34;8.77;;;4.07;;
58756;SDS011;44527;47.460;19.016;2023-09-08T15:26:38;7.32;;;3.67;;
58756;SDS011;44527;47.460;19.016;2023-09-08T15:29:41;8.30;;;3.40;;
58756;SDS011;44527;47.460;19.016;2023-09-08T15:32:43;12.73;;;3.80;;
58756;SDS011;44527;47.460;19.016;2023-09-08T15:35:47;9.48;;;3.97;;
58756;SDS011;44527;47.460;19.016;2023-09-08T15:38:49;7.95;;;4.62;;
58756;SDS011;44527;47.460;19.016;2023-09-08T15:41:52;7.50;;;3.62;;
58756;SDS011;44527;47.460;19.016;2023-09-08T15:44:54;7.85;;;3.80;;
58756;SDS011;44527;47.460;19.016;2023-09-08T15:47:57;6.35;;;3.53;;
58756;SDS011;44527;47.460;19.016;2023-09-08T15:50:59;5.78;;;3.58;;
58756;SDS011;44527;47.460;19.016;2023-09-08T15:54:02;8.40;;;3.60;;
58756;SDS011;44527;47.460;19.016;2023-09-08T15:57:05;13.73;;;4.00;;
58756;SDS011;44527;47.460;19.016;2023-09-08T16:00:09;9.30;;;3.60;;
58756;SDS011;44527;47.460;19.016;2023-09-08T16:03:13;8.70;;;3.87;;
58756;SDS011;44527;47.460;19.016;2023-09-08T16:06:15;6.78;;;3.53;;
58756;SDS011;44527;47.460;19.016;2023-09-08T16:09:20;7.05;;;3.92;;
58756;SDS011;44527;47.460;19.016;2023-09-08T16:12:23;6.47;;;3.37;;
58756;SDS011;44527;47.460;19.016;2023-09-08T16:15:27;16.08;;;3.17;;
58756;SDS011;44527;47.460;19.016;2023-09-08T16:18:32;10.57;;;3.92;;
58756;SDS011;44527;47.460;19.016;2023-09-08T16:21:35;5.85;;;3.53;;
58756;SDS011;44527;47.460;19.016;2023-09-08T16:24:37;7.85;;;3.75;;
58756;SDS011;44527;47.460;19.016;2023-09-08T16:27:39;5.82;;;3.55;;
58756;SDS011;44527;47.460;19.016;2023-09-08T16:30:42;12.45;;;3.80;;
58756;SDS011;44527;47.460;19.016;2023-09-08T16:33:44;8.05;;;3.97;;
58756;SDS011;44527;47.460;19.016;2023-09-08T16:36:47;10.60;;;3.78;;
58756;SDS011;44527;47.460;19.016;2023-09-08T16:39:50;10.90;;;4.53;;
58756;SDS011;44527;47.460;19.016;2023-09-08T16:42:52;13.30;;;3.85;;
58756;SDS011;44527;47.460;19.016;2023-09-08T16:45:55;8.30;;;4.22;;
58756;SDS011;44527;47.460;19.016;2023-09-08T16:48:57;7.68;;;3.75;;
58756;SDS011;44527;47.460;19.016;2023-09-08T16:52:00;6.68;;;3.62;;
58756;SDS011;44527;47.460;19.016;2023-09-08T16:55:02;8.90;;;3.78;;
58756;SDS011;44527;47.460;19.016;2023-09-08T16:58:05;10.23;;;4.15;;
58756;SDS011;44527;47.460;19.016;2023-09-08T17:01:07;12.32;;;3.97;;
58756;SDS011;44527;47.460;19.016;2023-09-08T17:04:10;5.22;;;3.67;;
58756;SDS011;44527;47.460;19.016;2023-09-08T17:07:13;11.02;;;3.78;;
58756;SDS011;44527;47.460;19.016;2023-09-08T17:10:17;12.05;;;3.80;;
58756;SDS011;44527;47.460;19.016;2023-09-08T17:13:19;16.17;;;3.97;;
58756;SDS011;44527;47.460;19.016;2023-09-08T17:16:22;11.32;;;4.40;;
58756;SDS011;44527;47.460;19.016;2023-09-08T17:19:24;11.10;;;4.22;;
58756;SDS011;44527;47.460;19.016;2023-09-08T17:22:26;9.85;;;4.65;;
58756;SDS011;44527;47.460;19.016;2023-09-08T17:25:29;9.52;;;4.43;;
58756;SDS011;44527;47.460;19.016;2023-09-08T17:28:31;10.23;;;4.40;;
58756;SDS011;44527;47.460;19.016;2023-09-08T17:31:37;5.87;;;4.05;;
58756;SDS011;44527;47.460;19.016;2023-09-08T17:34:39;8.30;;;4.70;;
58756;SDS011;44527;47.460;19.016;2023-09-08T17:37:41;10.57;;;5.28;;
58756;SDS011;44527;47.460;19.016;2023-09-08T17:40:44;10.00;;;4.75;;
58756;SDS011;44527;47.460;19.016;2023-09-08T17:43:46;10.38;;;5.03;;
58756;SDS011;44527;47.460;19.016;2023-09-08T17:46:49;11.23;;;5.93;;
58756;SDS011;44527;47.460;19.016;2023-09-08T17:49:52;16.60;;;6.07;;
58756;SDS011;44527;47.460;19.016;2023-09-08T17:52:55;12.13;;;5.55;;
58756;SDS011;44527;47.460;19.016;2023-09-08T17:55:57;12.27;;;5.97;;
58756;SDS011;44527;47.460;19.016;2023-09-08T17:59:00;10.68;;;5.68;;
58756;SDS011;44527;47.460;19.016;2023-09-08T18:02:02;12.43;;;5.55;;
58756;SDS011;44527;47.460;19.016;2023-09-08T18:05:05;8.77;;;5.75;;
58756;SDS011;44527;47.460;19.016;2023-09-08T18:08:08;12.57;;;6.12;;
58756;SDS011;44527;47.460;19.016;2023-09-08T18:11:10;14.93;;;5.07;;
58756;SDS011;44527;47.460;19.016;2023-09-08T18:14:12;13.90;;;6.03;;
58756;SDS011;44527;47.460;19.016;2023-09-08T18:17:15;10.88;;;4.75;;
58756;SDS011;44527;47.460;19.016;2023-09-08T18:20:17;15.10;;;4.95;;
58756;SDS011;44527;47.460;19.016;2023-09-08T18:23:21;13.35;;;5.30;;
58756;SDS011;44527;47.460;19.016;2023-09-08T18:26:23;11.75;;;6.00;;
58756;SDS011;44527;47.460;19.016;2023-09-08T18:29:26;16.02;;;5.43;;
58756;SDS011;44527;47.460;19.016;2023-09-08T18:32:30;15.32;;;5.30;;
58756;SDS011;44527;47.460;19.016;2023-09-08T18:35:33;24.45;;;5.65;;
58756;SDS011;44527;47.460;19.016;2023-09-08T18:38:36;12.40;;;5.53;;
58756;SDS011;44527;47.460;19.016;2023-09-08T18:41:38;14.93;;;5.15;;
58756;SDS011;44527;47.460;19.016;2023-09-08T18:44:41;12.80;;;5.65;;
58756;SDS011;44527;47.460;19.016;2023-09-08T18:47:44;19.50;;;5.28;;
58756;SDS011;44527;47.460;19.016;2023-09-08T18:50:47;14.65;;;5.60;;
58756;SDS011;44527;47.460;19.016;2023-09-08T18:53:50;10.90;;;4.95;;
58756;SDS011;44527;47.460;19.016;2023-09-08T18:56:53;12.98;;;5.53;;
58756;SDS011;44527;47.460;19.016;2023-09-08T18:59:56;15.77;;;5.45;;
58756;SDS011;44527;47.460;19.016;2023-09-08T19:02:59;10.45;;;5.12;;
58756;SDS011;44527;47.460;19.016;2023-09-08T19:06:03;10.98;;;4.95;;
58756;SDS011;44527;47.460;19.016;2023-09-08T19:09:06;14.13;;;5.65;;
58756;SDS011;44527;47.460;19.016;2023-09-08T19:12:09;8.40;;;4.87;;
58756;SDS011;44527;47.460;19.016;2023-09-08T19:15:11;14.27;;;5.00;;
58756;SDS011;44527;47.460;19.016;2023-09-08T19:18:14;15.88;;;5.25;;
58756;SDS011;44527;47.460;19.016;2023-09-08T19:21:18;7.78;;;4.72;;
58756;SDS011;44527;47.460;19.016;2023-09-08T19:24:22;10.88;;;5.25;;
58756;SDS011;44527;47.460;19.016;2023-09-08T19:27:25;10.07;;;5.25;;
58756;SDS011;44527;47.460;19.016;2023-09-08T19:30:28;11.25;;;5.43;;
58756;SDS011;44527;47.460;19.016;2023-09-08T19:33:31;13.77;;;5.50;;
58756;SDS011;44527;47.460;19.016;2023-09-08T19:36:33;15.20;;;5.87;;
58756;SDS011;44527;47.460;19.016;2023-09-08T19:39:36;13.70;;;5.93;;
58756;SDS011;44527;47.460;19.016;2023-09-08T19:42:38;11.88;;;6.05;;
58756;SDS011;44527;47.460;19.016;2023-09-08T19:45:40;23.45;;;7.18;;
58756;SDS011;44527;47.460;19.016;2023-09-08T19:48:43;16.33;;;5.45;;
58756;SDS011;44527;47.460;19.016;2023-09-08T19:51:46;9.77;;;5.40;;
58756;SDS011;44527;47.460;19.016;2023-09-08T19:54:48;12.93;;;5.70;;
58756;SDS011;44527;47.460;19.016;2023-09-08T19:57:50;18.55;;;5.95;;
58756;SDS011;44527;47.460;19.016;2023-09-08T20:00:53;12.93;;;5.07;;
58756;SDS011;44527;47.460;19.016;2023-09-08T20:03:56;16.08;;;6.57;;
58756;SDS011;44527;47.460;19.016;2023-09-08T20:06:58;11.40;;;5.72;;
58756;SDS011;44527;47.460;19.016;2023-09-08T20:10:01;10.30;;;5.47;;
58756;SDS011;44527;47.460;19.016;2023-09-08T20:13:04;16.17;;;5.55;;
58756;SDS011;44527;47.460;19.016;2023-09-08T20:16:07;16.02;;;5.35;;
58756;SDS011;44527;47.460;19.016;2023-09-08T20:19:09;13.35;;;5.22;;
58756;SDS011;44527;47.460;19.016;2023-09-08T20:22:12;10.10;;;5.37;;
58756;SDS011;44527;47.460;19.016;2023-09-08T20:25:15;11.38;;;5.20;;
58756;SDS011;44527;47.460;19.016;2023-09-08T20:28:17;11.85;;;5.12;;
58756;SDS011;44527;47.460;19.016;2023-09-08T20:31:20;12.05;;;5.18;;
58756;SDS011;44527;47.460;19.016;2023-09-08T20:34:23;12.63;;;5.22;;
58756;SDS011;44527;47.460;19.016;2023-09-08T20:37:25;9.93;;;5.80;;
58756;SDS011;44527;47.460;19.016;2023-09-08T20:40:28;10.93;;;4.85;;
58756;SDS011;44527;47.460;19.016;2023-09-08T20:43:31;20.08;;;5.30;;
58756;SDS011;44527;47.460;19.016;2023-09-08T20:46:35;14.35;;;5.62;;
58756;SDS011;44527;47.460;19.016;2023-09-08T20:49:37;12.95;;;5.62;;
58756;SDS011;44527;47.460;19.016;2023-09-08T20:52:40;14.87;;;5.70;;
58756;SDS011;44527;47.460;19.016;2023-09-08T20:55:42;11.20;;;5.25;;
58756;SDS011;44527;47.460;19.016;2023-09-08T20:58:45;13.07;;;5.75;;
58756;SDS011;44527;47.460;19.016;2023-09-08T21:01:47;12.37;;;5.72;;
58756;SDS011;44527;47.460;19.016;2023-09-08T21:04:50;14.20;;;5.20;;
58756;SDS011;44527;47.460;19.016;2023-09-08T21:07:52;10.57;;;5.20;;
58756;SDS011;44527;47.460;19.016;2023-09-08T21:10:57;12.80;;;5.70;;
58756;SDS011;44527;47.460;19.016;2023-09-08T21:13:59;12.93;;;5.70;;
58756;SDS011;44527;47.460;19.016;2023-09-08T21:17:03;16.80;;;5.70;;
58756;SDS011;44527;47.460;19.016;2023-09-08T21:20:06;10.40;;;4.65;;
58756;SDS011;44527;47.460;19.016;2023-09-08T21:23:10;9.57;;;5.40;;
58756;SDS011;44527;47.460;19.016;2023-09-08T21:26:12;9.20;;;4.78;;
58756;SDS011;44527;47.460;19.016;2023-09-08T21:29:18;16.42;;;5.70;;
58756;SDS011;44527;47.460;19.016;2023-09-08T21:32:22;13.75;;;5.70;;
58756;SDS011;44527;47.460;19.016;2023-09-08T21:35:26;13.50;;;5.40;;
58756;SDS011;44527;47.460;19.016;2023-09-08T21:38:30;9.38;;;4.82;;
58756;SDS011;44527;47.460;19.016;2023-09-08T21:41:33;12.52;;;5.35;;
58756;SDS011;44527;47.460;19.016;2023-09-08T21:44:36;11.98;;;5.47;;
58756;SDS011;44527;47.460;19.016;2023-09-08T21:47:39;18.67;;;5.72;;
58756;SDS011;44527;47.460;19.016;2023-09-08T21:50:41;14.23;;;5.90;;
58756;SDS011;44527;47.460;19.016;2023-09-08T21:53:44;10.07;;;5.55;;
58756;SDS011;44527;47.460;19.016;2023-09-08T21:56:46;14.07;;;6.57;;
58756;SDS011;44527;47.460;19.016;2023-09-08T21:59:49;17.85;;;5.80;;
58756;SDS011;44527;47.460;19.016;2023-09-08T22:02:51;11.43;;;5.03;;
58756;SDS011;44527;47.460;19.016;2023-09-08T22:05:54;11.60;;;5.50;;
58756;SDS011;44527;47.460;19.016;2023-09-08T22:08:56;9.13;;;4.85;;
58756;SDS011;44527;47.460;19.016;2023-09-08T22:12:00;10.57;;;5.20;;
58756;SDS011;44527;47.460;19.016;2023-09-08T22:15:03;12.00;;;5.50;;
58756;SDS011;44527;47.460;19.016;2023-09-08T22:18:06;10.55;;;5.53;;
58756;SDS011;44527;47.460;19.016;2023-09-08T22:21:08;8.52;;;4.70;;
58756;SDS011;44527;47.460;19.016;2023-09-08T22:24:11;11.02;;;5.25;;
58756;SDS011;44527;47.460;19.016;2023-09-08T22:27:13;9.32;;;5.03;;
58756;SDS011;44527;47.460;19.016;2023-09-08T22:30:19;14.27;;;5.12;;
58756;SDS011;44527;47.460;19.016;2023-09-08T22:33:23;7.95;;;5.30;;
58756;SDS011;44527;47.460;19.016;2023-09-08T22:36:27;10.73;;;4.82;;
58756;SDS011;44527;47.460;19.016;2023-09-08T22:39:29;12.00;;;5.55;;
58756;SDS011;44527;47.460;19.016;2023-09-08T22:42:32;12.88;;;5.50;;
58756;SDS011;44527;47.460;19.016;2023-09-08T22:45:34;11.80;;;5.50;;
58756;SDS011;44527;47.460;19.016;2023-09-08T22:48:37;10.95;;;5.53;;
58756;SDS011;44527;47.460;19.016;2023-09-08T22:51:39;14.38;;;5.30;;
58756;SDS011;44527;47.460;19.016;2023-09-08T22:54:42;12.52;;;5.57;;
58756;SDS011;44527;47.460;19.016;2023-09-08T22:57:44;14.85;;;5.20;;
58756;SDS011;44527;47.460;19.016;2023-09-08T23:00:47;9.65;;;5.12;;
58756;SDS011;44527;47.460;19.016;2023-09-08T23:03:49;9.57;;;5.72;;
58756;SDS011;44527;47.460;19.016;2023-09-08T23:06:52;12.15;;;5.12;;
58756;SDS011;44527;47.460;19.016;2023-09-08T23:09:54;10.13;;;4.78;;
58756;SDS011;44527;47.460;19.016;2023-09-08T23:12:57;13.23;;;5.60;;
58756;SDS011;44527;47.460;19.016;2023-09-08T23:15:59;13.45;;;5.03;;
58756;SDS011;44527;47.460;19.016;2023-09-08T23:19:02;8.63;;;4.65;;
58756;SDS011;44527;47.460;19.016;2023-09-08T23:22:04;10.10;;;4.95;;
58756;SDS011;44527;47.460;19.016;2023-09-08T23:25:07;11.65;;;5.40;;
58756;SDS011;44527;47.460;19.016;2023-09-08T23:28:09;12.23;;;5.70;;
58756;SDS011;44527;47.460;19.016;2023-09-08T23:31:12;9.82;;;5.22;;
58756;SDS011;44527;47.460;19.016;2023-09-08T23:34:14;16.15;;;5.32;;
58756;SDS011;44527;47.460;19.016;2023-09-08T23:37:17;10.63;;;5.03;;
58756;SDS011;44527;47.460;19.016;2023-09-08T23:40:19;12.63;;;5.22;;
58756;SDS011;44527;47.460;19.016;2023-09-08T23:43:23;11.85;;;5.53;;
58756;SDS011;44527;47.460;19.016;2023-09-08T23:46:25;14.00;;;6.45;;
58756;SDS011;44527;47.460;19.016;2023-09-08T23:49:28;12.05;;;5.47;;
58756;SDS011;44527;47.460;19.016;2023-09-08T23:52:30;12.63;;;5.85;;
58756;SDS011;44527;47.460;19.016;2023-09-08T23:55:35;11.18;;;5.93;;
58756;SDS011;44527;47.460;19.016;2023-09-08T23:58:38;14.32;;;5.95;;
